sensor_id;sensor_type;location;lat;lon;timestamp;pressure;altitude;pressure_sealevel;temperature
19568;BMP280;9930;49.240;8.548;2022-12-05T00:01:25;100384.13;;;8.72
19568;BMP280;9930;49.240;8.548;2022-12-05T00:03:55;100390.94;;;8.73
19568;BMP280;9930;49.240;8.548;2022-12-05T00:06:22;100386.31;;;8.64
19568;BMP280;9930;49.240;8.548;2022-12-05T00:08:54;100382.09;;;8.65
19568;BMP280;9930;49.240;8.548;2022-12-05T00:11:25;100394.22;;;8.70
19568;BMP280;9930;49.240;8.548;2022-12-05T00:13:55;100381.22;;;8.64
19568;BMP280;9930;49.240;8.548;2022-12-05T00:16:26;100381.28;;;8.66
19568;BMP280;9930;49.240;8.548;2022-12-05T00:18:53;100388.31;;;8.71
19568;BMP280;9930;49.240;8.548;2022-12-05T00:21:24;100395.28;;;8.75
19568;BMP280;9930;49.240;8.548;2022-12-05T00:23:52;100396.16;;;8.76
19568;BMP280;9930;49.240;8.548;2022-12-05T00:26:20;100396.81;;;8.72
19568;BMP280;9930;49.240;8.548;2022-12-05T00:28:48;100396.81;;;8.72
19568;BMP280;9930;49.240;8.548;2022-12-05T00:31:21;100394.94;;;8.68
19568;BMP280;9930;49.240;8.548;2022-12-05T00:33:50;100404.44;;;8.72
19568;BMP280;9930;49.240;8.548;2022-12-05T00:36:30;100400.03;;;8.68
19568;BMP280;9930;49.240;8.548;2022-12-05T00:38:59;100410.41;;;8.72
19568;BMP280;9930;49.240;8.548;2022-12-05T00:41:28;100412.94;;;8.72
19568;BMP280;9930;49.240;8.548;2022-12-05T00:43:57;100410.47;;;8.74
19568;BMP280;9930;49.240;8.548;2022-12-05T00:46:27;100398.34;;;8.68
19568;BMP280;9930;49.240;8.548;2022-12-05T00:48:55;100406.25;;;8.74
19568;BMP280;9930;49.240;8.548;2022-12-05T00:51:37;100397.56;;;8.69
19568;BMP280;9930;49.240;8.548;2022-12-05T00:54:10;100408.81;;;8.74
19568;BMP280;9930;49.240;8.548;2022-12-05T00:56:39;100400.91;;;8.68
19568;BMP280;9930;49.240;8.548;2022-12-05T00:59:06;100413.88;;;8.74
19568;BMP280;9930;49.240;8.548;2022-12-05T01:01:39;100418.16;;;8.75
19568;BMP280;9930;49.240;8.548;2022-12-05T01:04:22;100419.84;;;8.75
19568;BMP280;9930;49.240;8.548;2022-12-05T01:06:50;100419.63;;;8.70
19568;BMP280;9930;49.240;8.548;2022-12-05T01:09:19;100419.78;;;8.73
19568;BMP280;9930;49.240;8.548;2022-12-05T01:11:50;100429.16;;;8.74
19568;BMP280;9930;49.240;8.548;2022-12-05T01:14:20;100426.59;;;8.74
19568;BMP280;9930;49.240;8.548;2022-12-05T01:16:50;100424.94;;;8.75
19568;BMP280;9930;49.240;8.548;2022-12-05T01:19:29;100428.34;;;8.75
19568;BMP280;9930;49.240;8.548;2022-12-05T01:22:01;100419.78;;;8.73
19568;BMP280;9930;49.240;8.548;2022-12-05T01:24:30;100428.41;;;8.77
19568;BMP280;9930;49.240;8.548;2022-12-05T01:26:56;100429.94;;;8.73
19568;BMP280;9930;49.240;8.548;2022-12-05T01:29:24;100416.16;;;8.68
19568;BMP280;9930;49.240;8.548;2022-12-05T01:31:53;100423.84;;;8.70
19568;BMP280;9930;49.240;8.548;2022-12-05T01:34:19;100419.63;;;8.70
19568;BMP280;9930;49.240;8.548;2022-12-05T01:36:48;100425.88;;;8.77
19568;BMP280;9930;49.240;8.548;2022-12-05T01:39:17;100410.94;;;8.65
19568;BMP280;9930;49.240;8.548;2022-12-05T01:41:50;100431.03;;;8.79
19568;BMP280;9930;49.240;8.548;2022-12-05T01:46:50;100436.97;;;8.79
19568;BMP280;9930;49.240;8.548;2022-12-05T01:49:24;100439.53;;;8.79
19568;BMP280;9930;49.240;8.548;2022-12-05T01:51:56;100453.91;;;8.79
19568;BMP280;9930;49.240;8.548;2022-12-05T01:54:23;100443.47;;;8.72
19568;BMP280;9930;49.240;8.548;2022-12-05T01:56:56;100452.16;;;8.77
19568;BMP280;9930;49.240;8.548;2022-12-05T01:59:24;100452.16;;;8.77
19568;BMP280;9930;49.240;8.548;2022-12-05T02:01:51;100450.44;;;8.76
19568;BMP280;9930;49.240;8.548;2022-12-05T02:04:20;100445.22;;;8.73
19568;BMP280;9930;49.240;8.548;2022-12-05T02:06:48;100450.44;;;8.76
19568;BMP280;9930;49.240;8.548;2022-12-05T02:09:17;100455.66;;;8.80
19568;BMP280;9930;49.240;8.548;2022-12-05T02:11:56;100445.34;;;8.76
19568;BMP280;9930;49.240;8.548;2022-12-05T02:14:35;100442.00;;;8.77
19568;BMP280;9930;49.240;8.548;2022-12-05T02:31:41;100463.94;;;8.75
19568;BMP280;9930;49.240;8.548;2022-12-05T02:34:20;100441.22;;;8.61
19568;BMP280;9930;49.240;8.548;2022-12-05T02:37:27;100458.50;;;8.68
19568;BMP280;9930;49.240;8.548;2022-12-05T02:43:14;100486.69;;;8.72
19568;BMP280;9930;49.240;8.548;2022-12-05T02:45:50;100490.97;;;8.73
19568;BMP280;9930;49.240;8.548;2022-12-05T02:48:21;100497.81;;;8.74
19568;BMP280;9930;49.240;8.548;2022-12-05T02:50:51;100499.53;;;8.75
19568;BMP280;9930;49.240;8.548;2022-12-05T02:53:21;100498.75;;;8.76
19568;BMP280;9930;49.240;8.548;2022-12-05T02:55:49;100492.78;;;8.76
19568;BMP280;9930;49.240;8.548;2022-12-05T02:58:32;100494.47;;;8.75
19568;BMP280;9930;49.240;8.548;2022-12-05T03:00:59;100484.06;;;8.71
19568;BMP280;9930;49.240;8.548;2022-12-05T03:03:25;100485.75;;;8.70
19568;BMP280;9930;49.240;8.548;2022-12-05T03:05:55;100503.84;;;8.76
19568;BMP280;9930;49.240;8.548;2022-12-05T03:08:40;100505.50;;;8.76
19568;BMP280;9930;49.240;8.548;2022-12-05T03:11:07;100511.38;;;8.75
19568;BMP280;9930;49.240;8.548;2022-12-05T03:13:54;100499.25;;;8.69
19568;BMP280;9930;49.240;8.548;2022-12-05T03:16:33;100501.81;;;8.69
19568;BMP280;9930;49.240;8.548;2022-12-05T03:19:25;100523.38;;;8.77
19568;BMP280;9930;49.240;8.548;2022-12-05T03:22:01;100517.34;;;8.75
19568;BMP280;9930;49.240;8.548;2022-12-05T03:24:34;100519.75;;;8.72
19568;BMP280;9930;49.240;8.548;2022-12-05T03:30:16;100510.31;;;8.70
19568;BMP280;9930;49.240;8.548;2022-12-05T03:32:58;100513.78;;;8.72
19568;BMP280;9930;49.240;8.548;2022-12-05T03:36:12;100519.00;;;8.75
19568;BMP280;9930;49.240;8.548;2022-12-05T03:38:55;100536.88;;;8.76
19568;BMP280;9930;49.240;8.548;2022-12-05T03:41:40;100530.13;;;8.77
19568;BMP280;9930;49.240;8.548;2022-12-05T03:44:20;100534.34;;;8.76
19568;BMP280;9930;49.240;8.548;2022-12-05T03:46:59;100519.59;;;8.69
19568;BMP280;9930;49.240;8.548;2022-12-05T03:49:33;100512.03;;;8.71
19568;BMP280;9930;49.240;8.548;2022-12-05T03:52:11;100526.00;;;8.79
19568;BMP280;9930;49.240;8.548;2022-12-05T03:54:48;100508.78;;;8.73
19568;BMP280;9930;49.240;8.548;2022-12-05T03:57:32;100507.25;;;8.77
19568;BMP280;9930;49.240;8.548;2022-12-05T04:00:10;100509.78;;;8.77
19568;BMP280;9930;49.240;8.548;2022-12-05T04:08:27;100517.63;;;8.82
19568;BMP280;9930;49.240;8.548;2022-12-05T04:11:02;100515.97;;;8.82
19568;BMP280;9930;49.240;8.548;2022-12-05T04:13:42;100504.69;;;8.77
19568;BMP280;9930;49.240;8.548;2022-12-05T04:16:33;100505.50;;;8.76
19568;BMP280;9930;49.240;8.548;2022-12-05T04:19:31;100507.25;;;8.77
19568;BMP280;9930;49.240;8.548;2022-12-05T04:22:20;100498.69;;;8.75
19568;BMP280;9930;49.240;8.548;2022-12-05T04:24:53;100513.47;;;8.84
19568;BMP280;9930;49.240;8.548;2022-12-05T04:30:23;100520.38;;;8.86
19568;BMP280;9930;49.240;8.548;2022-12-05T04:33:04;100503.97;;;8.80
19568;BMP280;9930;49.240;8.548;2022-12-05T04:35:44;100526.34;;;8.87
19568;BMP280;9930;49.240;8.548;2022-12-05T04:38:27;100511.38;;;8.75
19568;BMP280;9930;49.240;8.548;2022-12-05T04:41:05;100508.25;;;8.81
19568;BMP280;9930;49.240;8.548;2022-12-05T04:43:40;100516.16;;;8.87
19568;BMP280;9930;49.240;8.548;2022-12-05T04:46:13;100518.72;;;8.87
19568;BMP280;9930;49.240;8.548;2022-12-05T04:48:49;100517.91;;;8.88
19568;BMP280;9930;49.240;8.548;2022-12-05T04:51:26;100514.44;;;8.86
19568;BMP280;9930;49.240;8.548;2022-12-05T04:54:01;100513.34;;;8.81
19568;BMP280;9930;49.240;8.548;2022-12-05T04:56:35;100515.09;;;8.82
19568;BMP280;9930;49.240;8.548;2022-12-05T04:59:03;100508.13;;;8.77
19568;BMP280;9930;49.240;8.548;2022-12-05T05:01:56;100527.81;;;8.82
19568;BMP280;9930;49.240;8.548;2022-12-05T05:04:40;100522.56;;;8.79
19568;BMP280;9930;49.240;8.548;2022-12-05T05:07:10;100511.47;;;8.76
19568;BMP280;9930;49.240;8.548;2022-12-05T05:09:38;100531.34;;;8.85
19568;BMP280;9930;49.240;8.548;2022-12-05T05:12:04;100530.63;;;8.88
19568;BMP280;9930;49.240;8.548;2022-12-05T05:14:30;100533.84;;;8.84
19568;BMP280;9930;49.240;8.548;2022-12-05T05:16:58;100540.88;;;8.89
19568;BMP280;9930;49.240;8.548;2022-12-05T05:19:24;100534.91;;;8.89
19568;BMP280;9930;49.240;8.548;2022-12-05T05:21:50;100546.97;;;8.93
19568;BMP280;9930;49.240;8.548;2022-12-05T05:24:17;100545.16;;;8.90
19568;BMP280;9930;49.240;8.548;2022-12-05T05:26:44;100535.66;;;8.86
19568;BMP280;9930;49.240;8.548;2022-12-05T05:29:11;100552.06;;;8.93
19568;BMP280;9930;49.240;8.548;2022-12-05T05:31:46;100562.31;;;8.94
19568;BMP280;9930;49.240;8.548;2022-12-05T05:34:15;100552.72;;;8.89
19568;BMP280;9930;49.240;8.548;2022-12-05T05:37:19;100566.53;;;8.94
19568;BMP280;9930;49.240;8.548;2022-12-05T05:39:46;100555.25;;;8.89
19568;BMP280;9930;49.240;8.548;2022-12-05T05:42:12;100562.91;;;8.89
19568;BMP280;9930;49.240;8.548;2022-12-05T05:44:47;100570.00;;;8.96
19568;BMP280;9930;49.240;8.548;2022-12-05T05:47:26;100567.38;;;8.94
19568;BMP280;9930;49.240;8.548;2022-12-05T05:49:54;100567.31;;;8.93
19568;BMP280;9930;49.240;8.548;2022-12-05T05:52:25;100560.34;;;8.89
19568;BMP280;9930;49.240;8.548;2022-12-05T05:54:54;100565.66;;;8.93
19568;BMP280;9930;49.240;8.548;2022-12-05T05:57:19;100571.59;;;8.94
19568;BMP280;9930;49.240;8.548;2022-12-05T05:59:57;100550.09;;;8.87
19568;BMP280;9930;49.240;8.548;2022-12-05T06:02:23;100562.31;;;8.94
19568;BMP280;9930;49.240;8.548;2022-12-05T06:05:15;100556.13;;;8.89
19568;BMP280;9930;49.240;8.548;2022-12-05T06:07:42;100560.41;;;8.90
19568;BMP280;9930;49.240;8.548;2022-12-05T06:10:51;100573.28;;;8.93
19568;BMP280;9930;49.240;8.548;2022-12-05T06:13:25;100581.84;;;8.95
19568;BMP280;9930;49.240;8.548;2022-12-05T06:15:53;100582.50;;;8.91
19568;BMP280;9930;49.240;8.548;2022-12-05T06:18:22;100580.78;;;8.90
19568;BMP280;9930;49.240;8.548;2022-12-05T06:20:52;100592.16;;;8.98
19568;BMP280;9930;49.240;8.548;2022-12-05T06:30:51;100590.66;;;8.84
19568;BMP280;9930;49.240;8.548;2022-12-05T06:36:51;100624.09;;;8.92
19568;BMP280;9930;49.240;8.548;2022-12-05T06:39:21;100615.34;;;8.87
19568;BMP280;9930;49.240;8.548;2022-12-05T06:41:48;100610.28;;;8.87
19568;BMP280;9930;49.240;8.548;2022-12-05T06:44:20;100612.03;;;8.88
19568;BMP280;9930;49.240;8.548;2022-12-05T06:46:54;100623.34;;;8.94
19568;BMP280;9930;49.240;8.548;2022-12-05T06:49:25;100610.41;;;8.90
19568;BMP280;9930;49.240;8.548;2022-12-05T06:52:04;100622.47;;;8.94
19568;BMP280;9930;49.240;8.548;2022-12-05T06:54:30;100632.06;;;8.99
19568;BMP280;9930;49.240;8.548;2022-12-05T06:56:55;100632.06;;;8.99
19568;BMP280;9930;49.240;8.548;2022-12-05T06:59:21;100637.22;;;9.01
19568;BMP280;9930;49.240;8.548;2022-12-05T07:01:48;100626.78;;;8.95
19568;BMP280;9930;49.240;8.548;2022-12-05T07:04:20;100639.06;;;9.03
19568;BMP280;9930;49.240;8.548;2022-12-05T07:06:52;100632.94;;;9.00
19568;BMP280;9930;49.240;8.548;2022-12-05T07:09:24;100643.34;;;9.04
19568;BMP280;9930;49.240;8.548;2022-12-05T07:12:21;100633.97;;;9.03
19568;BMP280;9930;49.240;8.548;2022-12-05T07:14:48;100629.69;;;9.02
19568;BMP280;9930;49.240;8.548;2022-12-05T07:17:20;100636.59;;;9.05
19568;BMP280;9930;49.240;8.548;2022-12-05T07:19:50;100642.53;;;9.05
19568;BMP280;9930;49.240;8.548;2022-12-05T07:22:20;100630.41;;;9.00
19568;BMP280;9930;49.240;8.548;2022-12-05T07:24:52;100643.56;;;9.09
19568;BMP280;9930;49.240;8.548;2022-12-05T07:27:21;100649.53;;;9.09
19568;BMP280;9930;49.240;8.548;2022-12-05T07:29:48;100653.00;;;9.12
19568;BMP280;9930;49.240;8.548;2022-12-05T07:32:18;100654.75;;;9.13
19568;BMP280;9930;49.240;8.548;2022-12-05T07:34:44;100647.78;;;9.08
19568;BMP280;9930;49.240;8.548;2022-12-05T07:37:11;100654.75;;;9.13
19568;BMP280;9930;49.240;8.548;2022-12-05T07:39:40;100661.66;;;9.15
19568;BMP280;9930;49.240;8.548;2022-12-05T07:42:06;100656.34;;;9.11
19568;BMP280;9930;49.240;8.548;2022-12-05T07:44:32;100666.81;;;9.17
19568;BMP280;9930;49.240;8.548;2022-12-05T07:46:58;100656.28;;;9.09
19568;BMP280;9930;49.240;8.548;2022-12-05T07:49:24;100674.47;;;9.17
19568;BMP280;9930;49.240;8.548;2022-12-05T07:51:52;100671.91;;;9.17
19568;BMP280;9930;49.240;8.548;2022-12-05T07:54:22;100677.78;;;9.16
19568;BMP280;9930;49.240;8.548;2022-12-05T07:56:48;100674.38;;;9.15
19568;BMP280;9930;49.240;8.548;2022-12-05T07:59:17;100676.13;;;9.16
19568;BMP280;9930;49.240;8.548;2022-12-05T08:01:50;100671.97;;;9.18
19568;BMP280;9930;49.240;8.548;2022-12-05T08:04:18;100677.94;;;9.19
19568;BMP280;9930;49.240;8.548;2022-12-05T08:06:45;100680.50;;;9.19
19568;BMP280;9930;49.240;8.548;2022-12-05T08:09:16;100670.97;;;9.15
19568;BMP280;9930;49.240;8.548;2022-12-05T08:11:47;100680.63;;;9.22
19568;BMP280;9930;49.240;8.548;2022-12-05T08:14:16;100684.91;;;9.23
19568;BMP280;9930;49.240;8.548;2022-12-05T08:16:48;100683.19;;;9.22
19568;BMP280;9930;49.240;8.548;2022-12-05T08:19:18;100693.44;;;9.23
19568;BMP280;9930;49.240;8.548;2022-12-05T08:21:46;100681.28;;;9.18
19568;BMP280;9930;49.240;8.548;2022-12-05T08:24:14;100685.56;;;9.19
19568;BMP280;9930;49.240;8.548;2022-12-05T08:26:40;100684.72;;;9.18
19568;BMP280;9930;49.240;8.548;2022-12-05T08:29:12;100692.63;;;9.24
19568;BMP280;9930;49.240;8.548;2022-12-05T08:31:47;100688.41;;;9.25
19568;BMP280;9930;49.240;8.548;2022-12-05T08:34:19;100676.28;;;9.19
19568;BMP280;9930;49.240;8.548;2022-12-05T08:36:48;100691.84;;;9.25
19568;BMP280;9930;49.240;8.548;2022-12-05T08:39:18;100695.31;;;9.27
19568;BMP280;9930;49.240;8.548;2022-12-05T08:41:48;100686.75;;;9.25
19568;BMP280;9930;49.240;8.548;2022-12-05T08:44:18;100698.66;;;9.26
19568;BMP280;9930;49.240;8.548;2022-12-05T08:46:50;100705.44;;;9.26
19568;BMP280;9930;49.240;8.548;2022-12-05T08:49:19;100710.81;;;9.32
19568;BMP280;9930;49.240;8.548;2022-12-05T08:51:51;100719.25;;;9.31
19568;BMP280;9930;49.240;8.548;2022-12-05T08:54:19;100712.34;;;9.28
19568;BMP280;9930;49.240;8.548;2022-12-05T08:56:45;100733.94;;;9.36
19568;BMP280;9930;49.240;8.548;2022-12-05T08:59:18;100726.38;;;9.38
19568;BMP280;9930;49.240;8.548;2022-12-05T09:01:49;100720.91;;;9.30
19568;BMP280;9930;49.240;8.548;2022-12-05T09:04:18;100726.22;;;9.35
19568;BMP280;9930;49.240;8.548;2022-12-05T09:06:46;100717.50;;;9.30
19568;BMP280;9930;49.240;8.548;2022-12-05T09:09:17;100728.84;;;9.36
19568;BMP280;9930;49.240;8.548;2022-12-05T09:11:44;100727.25;;;9.38
19568;BMP280;9930;49.240;8.548;2022-12-05T09:14:18;100735.16;;;9.45
19568;BMP280;9930;49.240;8.548;2022-12-05T09:16:48;100724.84;;;9.41
19568;BMP280;9930;49.240;8.548;2022-12-05T09:19:19;100736.84;;;9.44
19568;BMP280;9930;49.240;8.548;2022-12-05T09:21:49;100743.97;;;9.51
19568;BMP280;9930;49.240;8.548;2022-12-05T09:24:18;100732.69;;;9.46
19568;BMP280;9930;49.240;8.548;2022-12-05T09:26:46;100748.34;;;9.54
19568;BMP280;9930;49.240;8.548;2022-12-05T09:29:18;100755.16;;;9.55
19568;BMP280;9930;49.240;8.548;2022-12-05T09:31:48;100758.66;;;9.57
19568;BMP280;9930;49.240;8.548;2022-12-05T09:34:18;100766.38;;;9.58
19568;BMP280;9930;49.240;8.548;2022-12-05T09:36:47;100757.13;;;9.60
19568;BMP280;9930;49.240;8.548;2022-12-05T09:39:18;100764.03;;;9.63
19568;BMP280;9930;49.240;8.548;2022-12-05T09:45:22;100772.63;;;9.65
19568;BMP280;9930;49.240;8.548;2022-12-05T09:53:10;100770.50;;;9.74
19568;BMP280;9930;49.240;8.548;2022-12-05T09:56:02;100772.25;;;9.75
19568;BMP280;9930;49.240;8.548;2022-12-05T09:58:50;100774.06;;;9.78
19568;BMP280;9930;49.240;8.548;2022-12-05T10:07:22;100762.94;;;9.76
19568;BMP280;9930;49.240;8.548;2022-12-05T10:16:02;100758.78;;;9.78
19568;BMP280;9930;49.240;8.548;2022-12-05T10:18:58;100744.09;;;9.72
19568;BMP280;9930;49.240;8.548;2022-12-05T10:22:03;100748.75;;;9.81
19568;BMP280;9930;49.240;8.548;2022-12-05T10:24:51;100758.19;;;9.83
19568;BMP280;9930;49.240;8.548;2022-12-05T10:27:30;100747.78;;;9.79
19568;BMP280;9930;49.240;8.548;2022-12-05T10:32:53;100771.28;;;9.91
19568;BMP280;9930;49.240;8.548;2022-12-05T10:35:25;100763.66;;;9.91
19568;BMP280;9930;49.240;8.548;2022-12-05T10:38:25;100770.56;;;9.93
19568;BMP280;9930;49.240;8.548;2022-12-05T10:41:00;100773.09;;;9.93
19568;BMP280;9930;49.240;8.548;2022-12-05T10:43:31;100766.19;;;9.91
19568;BMP280;9930;49.240;8.548;2022-12-05T10:46:01;100766.19;;;9.91
19568;BMP280;9930;49.240;8.548;2022-12-05T10:48:28;100767.88;;;9.90
19568;BMP280;9930;49.240;8.548;2022-12-05T10:50:57;100761.75;;;9.87
19568;BMP280;9930;49.240;8.548;2022-12-05T10:53:48;100767.13;;;9.93
19568;BMP280;9930;49.240;8.548;2022-12-05T10:56:45;100771.44;;;9.94
19568;BMP280;9930;49.240;8.548;2022-12-05T10:59:23;100747.41;;;9.89
19568;BMP280;9930;49.240;8.548;2022-12-05T11:01:57;100771.63;;;9.98
19568;BMP280;9930;49.240;8.548;2022-12-05T11:04:43;100770.75;;;9.98
19568;BMP280;9930;49.240;8.548;2022-12-05T11:09:55;100759.69;;;9.97
19568;BMP280;9930;49.240;8.548;2022-12-05T11:12:42;100770.31;;;10.06
19568;BMP280;9930;49.240;8.548;2022-12-05T11:15:21;100767.03;;;10.09
19568;BMP280;9930;49.240;8.548;2022-12-05T11:17:53;100752.34;;;10.03
19568;BMP280;9930;49.240;8.548;2022-12-05T11:22:53;100757.19;;;10.17
19568;BMP280;9930;49.240;8.548;2022-12-05T11:25:35;100761.47;;;10.18
19568;BMP280;9930;49.240;8.548;2022-12-05T11:28:21;100753.88;;;10.19
19568;BMP280;9930;49.240;8.548;2022-12-05T11:31:27;100760.66;;;10.19
19568;BMP280;9930;49.240;8.548;2022-12-05T11:34:41;100751.34;;;10.19
19568;BMP280;9930;49.240;8.548;2022-12-05T11:37:13;100754.78;;;10.20
19568;BMP280;9930;49.240;8.548;2022-12-05T11:39:46;100748.66;;;10.16
19568;BMP280;9930;49.240;8.548;2022-12-05T11:42:48;100754.69;;;10.18
19568;BMP280;9930;49.240;8.548;2022-12-05T11:58:54;100735.44;;;10.05
19568;BMP280;9930;49.240;8.548;2022-12-05T12:10:39;100730.00;;;10.17
19568;BMP280;9930;49.240;8.548;2022-12-05T12:13:34;100715.31;;;10.12
19568;BMP280;9930;49.240;8.548;2022-12-05T12:21:44;100726.16;;;10.25
19568;BMP280;9930;49.240;8.548;2022-12-05T12:25:00;100716.56;;;10.20
19568;BMP280;9930;49.240;8.548;2022-12-05T12:35:49;100721.69;;;10.41
19568;BMP280;9930;49.240;8.548;2022-12-05T12:42:58;100730.34;;;10.44
19568;BMP280;9930;49.240;8.548;2022-12-05T12:45:44;100732.28;;;10.50
19568;BMP280;9930;49.240;8.548;2022-12-05T12:51:12;100731.72;;;10.57
19568;BMP280;9930;49.240;8.548;2022-12-05T12:54:25;100736.91;;;10.58
19568;BMP280;9930;49.240;8.548;2022-12-05T12:57:42;100731.78;;;10.58
19568;BMP280;9930;49.240;8.548;2022-12-05T13:00:40;100723.34;;;10.59
19568;BMP280;9930;49.240;8.548;2022-12-05T13:03:29;100727.84;;;10.65
19568;BMP280;9930;49.240;8.548;2022-12-05T13:06:11;100717.50;;;10.62
19568;BMP280;9930;49.240;8.548;2022-12-05T13:08:57;100734.13;;;10.73
19568;BMP280;9930;49.240;8.548;2022-12-05T13:11:27;100739.47;;;10.79
19568;BMP280;9930;49.240;8.548;2022-12-05T13:13:57;100732.81;;;10.83
19568;BMP280;9930;49.240;8.548;2022-12-05T13:16:40;100728.78;;;10.88
19568;BMP280;9930;49.240;8.548;2022-12-05T13:19:24;100723.56;;;10.85
19568;BMP280;9930;49.240;8.548;2022-12-05T13:21:51;100730.78;;;10.95
19568;BMP280;9930;49.240;8.548;2022-12-05T13:24:26;100716.22;;;10.92
19568;BMP280;9930;49.240;8.548;2022-12-05T13:26:58;100718.91;;;10.95
19568;BMP280;9930;49.240;8.548;2022-12-05T13:29:41;100731.09;;;11.02
19568;BMP280;9930;49.240;8.548;2022-12-05T13:32:32;100728.59;;;11.04
19568;BMP280;9930;49.240;8.548;2022-12-05T13:37:33;100715.66;;;10.99
19568;BMP280;9930;49.240;8.548;2022-12-05T13:40:49;100726.88;;;11.03
19568;BMP280;9930;49.240;8.548;2022-12-05T13:43:41;100728.28;;;10.96
19568;BMP280;9930;49.240;8.548;2022-12-05T13:46:21;100738.69;;;11.01
19568;BMP280;9930;49.240;8.548;2022-12-05T13:48:49;100742.84;;;10.99
19568;BMP280;9930;49.240;8.548;2022-12-05T13:51:42;100722.13;;;10.91
19568;BMP280;9930;49.240;8.548;2022-12-05T13:54:21;100738.44;;;10.95
19568;BMP280;9930;49.240;8.548;2022-12-05T13:57:01;100747.78;;;10.94
19568;BMP280;9930;49.240;8.548;2022-12-05T14:00:03;100749.25;;;10.89
19568;BMP280;9930;49.240;8.548;2022-12-05T14:07:59;100750.06;;;10.88
19568;BMP280;9930;49.240;8.548;2022-12-05T14:15:50;100759.41;;;10.88
19568;BMP280;9930;49.240;8.548;2022-12-05T14:18:46;100749.19;;;10.88
19568;BMP280;9930;49.240;8.548;2022-12-05T14:30:44;100754.97;;;10.84
19568;BMP280;9930;49.240;8.548;2022-12-05T14:33:21;100743.66;;;10.77
19568;BMP280;9930;49.240;8.548;2022-12-05T14:35:53;100755.72;;;10.81
19568;BMP280;9930;49.240;8.548;2022-12-05T14:38:31;100754.78;;;10.79
19568;BMP280;9930;49.240;8.548;2022-12-05T14:41:32;100758.97;;;10.77
19568;BMP280;9930;49.240;8.548;2022-12-05T14:44:00;100750.38;;;10.75
19568;BMP280;9930;49.240;8.548;2022-12-05T14:46:30;100755.41;;;10.74
19568;BMP280;9930;49.240;8.548;2022-12-05T14:49:49;100765.88;;;10.80
19568;BMP280;9930;49.240;8.548;2022-12-05T14:52:25;100761.44;;;10.76
19568;BMP280;9930;49.240;8.548;2022-12-05T14:55:16;100763.06;;;10.74
19568;BMP280;9930;49.240;8.548;2022-12-05T14:57:48;100770.72;;;10.74
19568;BMP280;9930;49.240;8.548;2022-12-05T15:00:24;100749.09;;;10.65
19568;BMP280;9930;49.240;8.548;2022-12-05T15:02:52;100760.19;;;10.66
19568;BMP280;9930;49.240;8.548;2022-12-05T15:05:30;100760.19;;;10.66
19568;BMP280;9930;49.240;8.548;2022-12-05T15:08:00;100770.59;;;10.70
19568;BMP280;9930;49.240;8.548;2022-12-05T15:10:38;100767.03;;;10.67
19568;BMP280;9930;49.240;8.548;2022-12-05T15:13:17;100768.72;;;10.66
19568;BMP280;9930;49.240;8.548;2022-12-05T15:16:12;100768.66;;;10.65
19568;BMP280;9930;49.240;8.548;2022-12-05T15:18:49;100769.44;;;10.64
19568;BMP280;9930;49.240;8.548;2022-12-05T15:21:30;100771.94;;;10.62
19568;BMP280;9930;49.240;8.548;2022-12-05T15:24:03;100766.78;;;10.61
19568;BMP280;9930;49.240;8.548;2022-12-05T15:26:52;100751.00;;;10.50
19568;BMP280;9930;49.240;8.548;2022-12-05T15:31:52;100779.38;;;10.58
19568;BMP280;9930;49.240;8.548;2022-12-05T15:35:04;100778.44;;;10.56
19568;BMP280;9930;49.240;8.548;2022-12-05T15:37:55;100782.53;;;10.52
19568;BMP280;9930;49.240;8.548;2022-12-05T15:40:23;100785.84;;;10.50
19568;BMP280;9930;49.240;8.548;2022-12-05T15:42:55;100776.16;;;10.43
19568;BMP280;9930;49.240;8.548;2022-12-05T15:45:26;100786.72;;;10.50
19568;BMP280;9930;49.240;8.548;2022-12-05T15:48:14;100789.13;;;10.47
19568;BMP280;9930;49.240;8.548;2022-12-05T15:50:51;100791.59;;;10.46
19568;BMP280;9930;49.240;8.548;2022-12-05T15:58:35;100782.88;;;10.41
19568;BMP280;9930;49.240;8.548;2022-12-05T16:01:21;100778.41;;;10.35
19568;BMP280;9930;49.240;8.548;2022-12-05T16:04:09;100799.06;;;10.41
19568;BMP280;9930;49.240;8.548;2022-12-05T16:06:44;100796.47;;;10.40
19568;BMP280;9930;49.240;8.548;2022-12-05T16:09:22;100801.56;;;10.40
19568;BMP280;9930;49.240;8.548;2022-12-05T16:12:02;100791.84;;;10.31
19568;BMP280;9930;49.240;8.548;2022-12-05T16:14:34;100797.88;;;10.33
19568;BMP280;9930;49.240;8.548;2022-12-05T16:17:03;100796.25;;;10.35
19568;BMP280;9930;49.240;8.548;2022-12-05T16:19:32;100800.41;;;10.33
19568;BMP280;9930;49.240;8.548;2022-12-05T16:24:40;100791.56;;;10.25
19568;BMP280;9930;49.240;8.548;2022-12-05T16:27:28;100782.91;;;10.21
19568;BMP280;9930;49.240;8.548;2022-12-05T16:32:41;100803.44;;;10.24
19568;BMP280;9930;49.240;8.548;2022-12-05T16:38:27;100792.59;;;10.11
19568;BMP280;9930;49.240;8.548;2022-12-05T16:41:01;100804.81;;;10.18
19568;BMP280;9930;49.240;8.548;2022-12-05T16:52:07;100807.94;;;10.12
19568;BMP280;9930;49.240;8.548;2022-12-05T16:54:36;100805.13;;;10.06
19568;BMP280;9930;49.240;8.548;2022-12-05T16:57:05;100807.88;;;10.11
19568;BMP280;9930;49.240;8.548;2022-12-05T17:02:03;100812.09;;;10.10
19568;BMP280;9930;49.240;8.548;2022-12-05T17:04:32;100801.63;;;10.04
19568;BMP280;9930;49.240;8.548;2022-12-05T17:06:58;100810.34;;;10.09
19568;BMP280;9930;49.240;8.548;2022-12-05T17:09:23;100808.47;;;10.05
19568;BMP280;9930;49.240;8.548;2022-12-05T17:11:55;100809.47;;;10.09
19568;BMP280;9930;49.240;8.548;2022-12-05T17:14:23;100814.66;;;10.10
19568;BMP280;9930;49.240;8.548;2022-12-05T17:16:49;100807.81;;;10.09
19568;BMP280;9930;49.240;8.548;2022-12-05T17:19:17;100801.75;;;10.07
19568;BMP280;9930;49.240;8.548;2022-12-05T17:21:43;100809.56;;;10.10
19568;BMP280;9930;49.240;8.548;2022-12-05T17:24:18;100807.94;;;10.12
19568;BMP280;9930;49.240;8.548;2022-12-05T17:26:46;100799.06;;;10.04
19568;BMP280;9930;49.240;8.548;2022-12-05T17:29:12;100799.00;;;10.02
19568;BMP280;9930;49.240;8.548;2022-12-05T17:31:43;100800.69;;;10.02
19568;BMP280;9930;49.240;8.548;2022-12-05T17:34:15;100810.34;;;10.09
19568;BMP280;9930;49.240;8.548;2022-12-05T17:36:43;100811.16;;;10.08
19568;BMP280;9930;49.240;8.548;2022-12-05T17:39:09;100800.69;;;10.02
19568;BMP280;9930;49.240;8.548;2022-12-05T17:41:35;100811.09;;;10.06
19568;BMP280;9930;49.240;8.548;2022-12-05T17:44:05;100797.13;;;9.98
19568;BMP280;9930;49.240;8.548;2022-12-05T17:46:31;100808.41;;;10.03
19568;BMP280;9930;49.240;8.548;2022-12-05T17:48:57;100796.97;;;9.95